Time;durP1;ratioP1;P1;durP2;ratioP2;P2;SDS_P1;SDS_P2;PMS_P1;PMS_P2;Temp;Humidity;BMP_temperature;BMP_pressure;BME280_temperature;BME280_humidity;BME280_pressure;Samples;Min_cycle;Max_cycle;Signal;HPM_P1;HPM_P2
2021/01/22 00:02:09;;;;;;;;;3.25;3.00;;;;;;;;5029429;28;8851;-68
2021/01/22 00:04:35;;;;;;;;;3.00;3.00;;;;;;;;5028598;28;11679;-68
2021/01/22 00:07:01;;;;;;;;;2.75;2.00;;;;;;;;5029041;28;11610;-69
2021/01/22 00:09:27;;;;;;;;;2.75;1.75;;;;;;;;5029844;28;11521;-68
2021/01/22 00:11:53;;;;;;;;;0.25;0.25;;;;;;;;5030186;28;8854;-68
2021/01/22 00:14:19;;;;;;;;;3.25;3.25;;;;;;;;5030152;28;8967;-67
2021/01/22 00:16:45;;;;;;;;;3.25;2.75;;;;;;;;5025582;28;8938;-67
2021/01/22 00:19:11;;;;;;;;;3.50;2.00;;;;;;;;5029209;28;8844;-69
2021/01/22 00:21:40;;;;;;;;;3.00;3.00;;;;;;;;5028855;28;11570;-68
2021/01/22 00:24:07;;;;;;;;;3.00;3.00;;;;;;;;5029067;28;8912;-68
2021/01/22 00:26:33;;;;;;;;;4.25;3.25;;;;;;;;5028732;28;11538;-67
2021/01/22 00:28:58;;;;;;;;;6.00;2.00;;;;;;;;5029068;28;11525;-67
2021/01/22 00:31:24;;;;;;;;;3.00;2.00;;;;;;;;5030039;28;8929;-68
2021/01/22 00:33:51;;;;;;;;;3.25;3.00;;;;;;;;5029854;28;8881;-70
2021/01/22 00:36:17;;;;;;;;;6.50;4.00;;;;;;;;5030073;28;8831;-68
2021/01/22 00:38:43;;;;;;;;;2.25;2.25;;;;;;;;5029388;28;11545;-67
2021/01/22 00:41:09;;;;;;;;;2.75;2.00;;;;;;;;5029853;28;9591;-68
2021/01/22 00:43:35;;;;;;;;;2.00;1.25;;;;;;;;5029604;28;8994;-68
2021/01/22 00:46:01;;;;;;;;;2.00;2.00;;;;;;;;5029755;28;8914;-68
2021/01/22 00:48:27;;;;;;;;;1.00;1.00;;;;;;;;5029724;28;8852;-69
2021/01/22 00:50:54;;;;;;;;;2.00;1.75;;;;;;;;5029967;28;11549;-68
2021/01/22 00:53:20;;;;;;;;;3.25;2.00;;;;;;;;5029295;28;8987;-69
2021/01/22 00:55:46;;;;;;;;;3.00;1.75;;;;;;;;5029732;28;11539;-68
2021/01/22 00:58:13;;;;;;;;;4.50;3.50;;;;;;;;5029547;28;8835;-69
2021/01/22 01:00:39;;;;;;;;;5.50;2.25;;;;;;;;5029567;28;8879;-68
2021/01/22 01:03:05;;;;;;;;;1.75;1.75;;;;;;;;5030699;28;11745;-68
2021/01/22 01:05:31;;;;;;;;;3.50;3.00;;;;;;;;5033161;28;8855;-69
2021/01/22 01:07:58;;;;;;;;;4.00;3.00;;;;;;;;5033392;28;11527;-69
2021/01/22 01:10:24;;;;;;;;;2.50;2.50;;;;;;;;5033004;28;8967;-69
2021/01/22 01:12:50;;;;;;;;;5.50;2.00;;;;;;;;5033332;28;11536;-69
2021/01/22 01:15:16;;;;;;;;;3.00;2.00;;;;;;;;5033019;28;8843;-69
2021/01/22 01:17:42;;;;;;;;;4.25;3.00;;;;;;;;5032754;28;8880;-69
2021/01/22 01:20:08;;;;;;;;;4.00;3.00;;;;;;;;5032979;28;8859;-68
2021/01/22 01:22:34;;;;;;;;;3.75;3.00;;;;;;;;5032591;28;8833;-68
2021/01/22 01:25:01;;;;;;;;;2.50;2.00;;;;;;;;5033214;28;12282;-69
2021/01/22 01:27:27;;;;;;;;;6.25;5.00;;;;;;;;5032396;28;11642;-69
2021/01/22 01:29:53;;;;;;;;;8.25;4.00;;;;;;;;5032730;28;11558;-68
2021/01/22 01:32:19;;;;;;;;;3.75;2.75;;;;;;;;5032789;28;9078;-68
2021/01/22 01:34:45;;;;;;;;;3.50;3.00;;;;;;;;5032817;28;8849;-69
2021/01/22 01:37:11;;;;;;;;;8.50;4.00;;;;;;;;5032760;28;8848;-68
2021/01/22 01:39:37;;;;;;;;;5.00;3.00;;;;;;;;5032614;28;8852;-67
2021/01/22 01:42:04;;;;;;;;;4.75;3.00;;;;;;;;5032631;28;8840;-69
2021/01/22 01:44:30;;;;;;;;;2.00;2.00;;;;;;;;5032571;28;8871;-68
2021/01/22 01:46:56;;;;;;;;;2.00;2.00;;;;;;;;5032478;28;11598;-68
2021/01/22 01:49:22;;;;;;;;;2.00;2.00;;;;;;;;5032439;28;8958;-68
2021/01/22 01:51:48;;;;;;;;;3.00;2.00;;;;;;;;5032282;28;8960;-69
2021/01/22 01:54:14;;;;;;;;;1.75;1.75;;;;;;;;5032291;28;11523;-68
2021/01/22 01:56:40;;;;;;;;;5.25;2.50;;;;;;;;5032157;28;8842;-68
2021/01/22 01:59:07;;;;;;;;;5.25;1.50;;;;;;;;5032327;28;11509;-67
2021/01/22 02:01:35;;;;;;;;;2.25;2.25;;;;;;;;5031958;28;11636;-68
2021/01/22 02:04:01;;;;;;;;;3.50;2.25;;;;;;;;5032101;28;11626;-68
2021/01/22 02:06:27;;;;;;;;;2.00;1.00;;;;;;;;5032152;28;11515;-68
2021/01/22 02:08:52;;;;;;;;;6.75;1.25;;;;;;;;5032241;28;9568;-68
2021/01/22 02:11:19;;;;;;;;;2.00;2.00;;;;;;;;5031921;28;8922;-68
2021/01/22 02:13:46;;;;;;;;;2.00;1.00;;;;;;;;5032112;28;9619;-68
2021/01/22 02:16:13;;;;;;;;;3.25;1.75;;;;;;;;5031597;28;11503;-68
2021/01/22 02:18:40;;;;;;;;;3.75;2.00;;;;;;;;5031788;28;11667;-68
2021/01/22 02:21:11;;;;;;;;;3.00;3.00;;;;;;;;5031914;28;11675;-68
2021/01/22 02:23:40;;;;;;;;;4.00;2.75;;;;;;;;5031558;28;11531;-68
2021/01/22 02:26:17;;;;;;;;;3.00;1.00;;;;;;;;5031932;28;11527;-68
2021/01/22 02:28:43;;;;;;;;;2.50;2.00;;;;;;;;5027837;28;11662;-68
2021/01/22 02:31:12;;;;;;;;;2.25;2.00;;;;;;;;5031936;28;11525;-69
2021/01/22 02:33:39;;;;;;;;;1.00;1.00;;;;;;;;5031413;28;11641;-69
2021/01/22 02:36:06;;;;;;;;;3.00;1.75;;;;;;;;5031581;28;11532;-68
2021/01/22 02:38:32;;;;;;;;;2.75;2.00;;;;;;;;5031311;28;11709;-68
2021/01/22 02:40:59;;;;;;;;;1.75;1.00;;;;;;;;5031561;28;11726;-69
2021/01/22 02:43:26;;;;;;;;;3.50;3.00;;;;;;;;5031150;28;11637;-68
2021/01/22 02:45:53;;;;;;;;;0.00;0.00;;;;;;;;5031373;28;11633;-68
2021/01/22 02:48:19;;;;;;;;;3.00;1.00;;;;;;;;5031311;28;11490;-68
2021/01/22 02:50:47;;;;;;;;;3.00;1.75;;;;;;;;5031538;28;11529;-68
2021/01/22 02:53:13;;;;;;;;;2.00;2.00;;;;;;;;5027230;28;8836;-68
2021/01/22 02:55:39;;;;;;;;;1.50;1.50;;;;;;;;5031248;28;11649;-68
2021/01/22 02:58:09;;;;;;;;;2.00;1.00;;;;;;;;5031008;28;11623;-68
2021/01/22 03:00:40;;;;;;;;;1.00;1.00;;;;;;;;5031086;28;11567;-68
2021/01/22 03:03:11;;;;;;;;;4.50;1.50;;;;;;;;5030902;28;11735;-69
2021/01/22 03:05:38;;;;;;;;;2.75;2.75;;;;;;;;5030812;28;11530;-67
2021/01/22 03:08:07;;;;;;;;;3.25;1.00;;;;;;;;5030990;28;11649;-69
2021/01/22 03:10:35;;;;;;;;;1.00;1.00;;;;;;;;5030873;28;11635;-68
2021/01/22 03:13:01;;;;;;;;;3.00;1.50;;;;;;;;5030896;28;11673;-68
2021/01/22 03:15:28;;;;;;;;;4.00;1.00;;;;;;;;5030600;28;11517;-68
2021/01/22 03:18:08;;;;;;;;;4.00;2.00;;;;;;;;5030633;28;12310;-69
2021/01/22 03:20:35;;;;;;;;;1.00;1.00;;;;;;;;5030599;28;11636;-69
2021/01/22 03:23:03;;;;;;;;;1.00;1.00;;;;;;;;5030507;28;11665;-69
2021/01/22 03:25:29;;;;;;;;;2.00;2.00;;;;;;;;5030012;28;12220;-69
2021/01/22 03:27:55;;;;;;;;;1.00;1.00;;;;;;;;5030622;28;11518;-67
2021/01/22 03:30:22;;;;;;;;;3.00;2.00;;;;;;;;5030612;28;8851;-68
2021/01/22 03:32:48;;;;;;;;;6.25;0.00;;;;;;;;5030687;28;9037;-69
2021/01/22 03:35:14;;;;;;;;;1.00;1.00;;;;;;;;5030529;28;11618;-69
2021/01/22 03:37:40;;;;;;;;;3.00;1.00;;;;;;;;5030158;28;8844;-68
2021/01/22 03:40:07;;;;;;;;;2.00;1.00;;;;;;;;5030436;28;8990;-68
2021/01/22 03:42:33;;;;;;;;;1.25;1.00;;;;;;;;5030279;28;11620;-68
2021/01/22 03:44:59;;;;;;;;;2.25;0.75;;;;;;;;5030330;28;11638;-68
2021/01/22 03:47:24;;;;;;;;;2.50;1.00;;;;;;;;5030093;28;8875;-68
2021/01/22 03:49:50;;;;;;;;;2.00;2.00;;;;;;;;5030409;28;8951;-68
2021/01/22 03:52:16;;;;;;;;;4.25;2.75;;;;;;;;5030007;28;8852;-68
2021/01/22 03:54:43;;;;;;;;;2.00;2.00;;;;;;;;5030250;28;8887;-69
2021/01/22 03:57:09;;;;;;;;;3.00;2.25;;;;;;;;5030075;28;8838;-68
2021/01/22 03:59:35;;;;;;;;;1.50;1.25;;;;;;;;5029921;28;11521;-68
2021/01/22 04:02:01;;;;;;;;;3.25;2.00;;;;;;;;5030152;28;8856;-68
2021/01/22 04:04:27;;;;;;;;;2.00;1.75;;;;;;;;5029943;28;8974;-68
2021/01/22 04:06:53;;;;;;;;;0.75;0.75;;;;;;;;5030244;28;8840;-68
2021/01/22 04:09:19;;;;;;;;;1.25;1.25;;;;;;;;5029978;28;8840;-69
2021/01/22 04:11:45;;;;;;;;;1.50;1.00;;;;;;;;5030258;28;8859;-69
2021/01/22 04:14:11;;;;;;;;;4.00;1.00;;;;;;;;5026187;28;11616;-68
2021/01/22 04:16:37;;;;;;;;;2.00;2.00;;;;;;;;5029600;28;11526;-69
2021/01/22 04:19:03;;;;;;;;;1.00;1.00;;;;;;;;5030181;28;9623;-68
2021/01/22 04:21:29;;;;;;;;;1.00;1.00;;;;;;;;5029458;28;9092;-69
2021/01/22 04:23:55;;;;;;;;;1.25;1.25;;;;;;;;5030154;28;8856;-68
2021/01/22 04:26:21;;;;;;;;;4.00;1.25;;;;;;;;5029775;28;8852;-69
2021/01/22 04:28:48;;;;;;;;;1.00;1.00;;;;;;;;5030094;28;8855;-68
2021/01/22 04:31:13;;;;;;;;;0.75;0.75;;;;;;;;5029957;28;9021;-67
2021/01/22 04:33:39;;;;;;;;;1.00;1.00;;;;;;;;5030145;28;11514;-69
2021/01/22 04:36:06;;;;;;;;;1.25;1.25;;;;;;;;5029949;28;8855;-68
2021/01/22 04:38:32;;;;;;;;;3.00;0.75;;;;;;;;5031413;28;8834;-68
2021/01/22 04:40:59;;;;;;;;;1.00;1.00;;;;;;;;5033839;28;12234;-68
2021/01/22 04:43:25;;;;;;;;;1.00;1.00;;;;;;;;5033923;28;8950;-69
2021/01/22 04:45:51;;;;;;;;;1.00;1.00;;;;;;;;5033674;28;11550;-69
2021/01/22 04:48:17;;;;;;;;;1.00;1.00;;;;;;;;5033636;28;8928;-69
2021/01/22 04:50:43;;;;;;;;;1.75;1.00;;;;;;;;5033796;28;11514;-69
2021/01/22 04:53:10;;;;;;;;;3.00;3.00;;;;;;;;5029523;28;8878;-68
2021/01/22 04:55:37;;;;;;;;;3.00;3.00;;;;;;;;5033423;28;11679;-69
2021/01/22 04:58:03;;;;;;;;;1.75;1.75;;;;;;;;5033272;28;11600;-68
2021/01/22 05:00:30;;;;;;;;;2.25;2.25;;;;;;;;5033461;28;11493;-69
2021/01/22 05:02:57;;;;;;;;;1.00;1.00;;;;;;;;5033484;28;11663;-69
2021/01/22 05:05:23;;;;;;;;;3.25;2.00;;;;;;;;5033446;28;11509;-68
2021/01/22 05:07:49;;;;;;;;;3.25;1.00;;;;;;;;5033549;28;11640;-68
2021/01/22 05:10:15;;;;;;;;;3.00;1.25;;;;;;;;5033106;28;11626;-69
2021/01/22 05:12:41;;;;;;;;;1.00;1.00;;;;;;;;5033279;28;8847;-69
2021/01/22 05:15:11;;;;;;;;;3.00;1.25;;;;;;;;5033463;28;11628;-68
2021/01/22 05:17:51;;;;;;;;;2.00;2.00;;;;;;;;5032685;28;11530;-68
2021/01/22 05:20:25;;;;;;;;;1.00;1.00;;;;;;;;5029634;28;11626;-68
2021/01/22 05:22:54;;;;;;;;;3.50;1.25;;;;;;;;5032902;28;11521;-68
2021/01/22 05:25:20;;;;;;;;;7.00;3.25;;;;;;;;5032706;28;11652;-69
2021/01/22 05:27:49;;;;;;;;;3.00;3.00;;;;;;;;5032802;28;11668;-69
2021/01/22 05:30:16;;;;;;;;;3.50;1.00;;;;;;;;5033157;28;11658;-68
2021/01/22 05:32:42;;;;;;;;;5.00;2.00;;;;;;;;5032776;28;11679;-68
2021/01/22 05:35:08;;;;;;;;;3.00;2.00;;;;;;;;5033177;28;11523;-69
2021/01/22 05:37:49;;;;;;;;;3.50;3.00;;;;;;;;5032598;28;8852;-69
2021/01/22 05:40:15;;;;;;;;;2.50;2.00;;;;;;;;5029298;28;11542;-69
2021/01/22 05:42:51;;;;;;;;;5.50;3.00;;;;;;;;5032790;28;11532;-69
2021/01/22 05:45:18;;;;;;;;;1.50;1.50;;;;;;;;5032419;28;11528;-68
2021/01/22 05:47:44;;;;;;;;;4.00;4.00;;;;;;;;5032435;28;11635;-68
2021/01/22 05:50:10;;;;;;;;;3.25;3.25;;;;;;;;5028314;28;12346;-68
2021/01/22 05:52:38;;;;;;;;;1.50;1.50;;;;;;;;5032131;28;11674;-68
2021/01/22 05:55:20;;;;;;;;;4.00;1.25;;;;;;;;5032544;28;11676;-68
2021/01/22 05:57:46;;;;;;;;;4.50;2.00;;;;;;;;5032618;28;11640;-67
2021/01/22 06:00:12;;;;;;;;;4.00;2.00;;;;;;;;5032238;28;11538;-68
2021/01/22 06:02:38;;;;;;;;;3.00;2.00;;;;;;;;5032266;28;11504;-68
2021/01/22 06:05:11;;;;;;;;;3.75;1.75;;;;;;;;5032300;28;11572;-68
2021/01/22 06:07:39;;;;;;;;;2.00;1.00;;;;;;;;5031836;28;8856;-68
2021/01/22 06:10:15;;;;;;;;;4.00;2.75;;;;;;;;5031905;28;12260;-69
2021/01/22 06:12:44;;;;;;;;;2.75;1.25;;;;;;;;5031649;28;12358;-69
2021/01/22 06:15:12;;;;;;;;;4.50;3.00;;;;;;;;5028047;28;11504;-67
2021/01/22 06:17:38;;;;;;;;;2.25;2.00;;;;;;;;5029111;28;11519;-67
2021/01/22 06:20:05;;;;;;;;;4.00;3.50;;;;;;;;5028110;28;11528;-68
2021/01/22 06:22:35;;;;;;;;;3.25;1.50;;;;;;;;5031224;28;11635;-68
2021/01/22 06:25:02;;;;;;;;;1.50;1.50;;;;;;;;5031820;28;12421;-68
2021/01/22 06:27:28;;;;;;;;;1.50;1.00;;;;;;;;5031340;28;11646;-68
2021/01/22 06:29:55;;;;;;;;;2.00;2.00;;;;;;;;5031628;28;11642;-68
2021/01/22 06:32:21;;;;;;;;;2.00;2.00;;;;;;;;5031320;28;11646;-68
2021/01/22 06:34:48;;;;;;;;;2.25;2.00;;;;;;;;5031562;28;11668;-68
2021/01/22 06:37:14;;;;;;;;;7.00;1.75;;;;;;;;5031092;28;8835;-69
2021/01/22 06:39:42;;;;;;;;;3.75;1.00;;;;;;;;5027834;28;11740;-68
2021/01/22 06:42:09;;;;;;;;;3.00;3.00;;;;;;;;5029987;28;12358;-66
2021/01/22 06:44:35;;;;;;;;;4.75;2.75;;;;;;;;5029625;28;11637;-70
2021/01/22 06:47:10;;;;;;;;;7.75;3.50;;;;;;;;5030438;28;11529;-68
2021/01/22 06:49:36;;;;;;;;;3.50;3.25;;;;;;;;5029666;28;8854;-68
2021/01/22 06:52:11;;;;;;;;;4.75;2.50;;;;;;;;5029734;28;11537;-68
2021/01/22 06:54:56;;;;;;;;;2.00;2.00;;;;;;;;5029920;28;8932;-67
2021/01/22 06:57:23;;;;;;;;;6.00;2.00;;;;;;;;5029609;28;11517;-67
2021/01/22 06:59:49;;;;;;;;;3.00;3.00;;;;;;;;5029617;28;11677;-72
2021/01/22 07:02:45;;;;;;;;;3.00;1.50;;;;;;;;5029554;28;12392;-69
2021/01/22 07:05:44;;;;;;;;;2.00;2.00;;;;;;;;4945149;28;11664;-66
2021/01/22 07:08:13;;;;;;;;;3.25;3.25;;;;;;;;5025848;28;11634;-69
2021/01/22 07:10:58;;;;;;;;;2.00;2.00;;;;;;;;5025972;28;11540;-69
2021/01/22 07:13:38;;;;;;;;;3.50;3.00;;;;;;;;5030540;28;11040;-72
2021/01/22 07:16:05;;;;;;;;;2.75;1.25;;;;;;;;5030686;28;11646;-72
2021/01/22 07:18:32;;;;;;;;;4.25;1.50;;;;;;;;5030006;28;11682;-73
2021/01/22 07:21:13;;;;;;;;;3.00;3.00;;;;;;;;5030660;28;11520;-73
2021/01/22 07:23:42;;;;;;;;;4.00;3.00;;;;;;;;5017719;28;11646;-73
2021/01/22 07:26:10;;;;;;;;;2.75;2.75;;;;;;;;5025478;28;11648;-72
2021/01/22 07:28:48;;;;;;;;;1.75;1.75;;;;;;;;5029317;28;11531;-73
2021/01/22 07:31:43;;;;;;;;;7.50;4.50;;;;;;;;5024934;28;11640;-73
2021/01/22 07:34:29;;;;;;;;;3.50;2.75;;;;;;;;5025244;28;11705;-71
2021/01/22 07:36:54;;;;;;;;;3.00;3.00;;;;;;;;5026972;28;11638;-73
2021/01/22 07:39:20;;;;;;;;;3.00;3.00;;;;;;;;5027798;28;11634;-73
2021/01/22 07:41:47;;;;;;;;;3.00;2.00;;;;;;;;5029168;28;9672;-71
2021/01/22 07:44:24;;;;;;;;;7.00;3.00;;;;;;;;5025467;28;11671;-71
2021/01/22 07:46:53;;;;;;;;;3.75;3.75;;;;;;;;5028501;28;11560;-74
2021/01/22 07:49:19;;;;;;;;;3.25;3.25;;;;;;;;5027681;28;12462;-74
2021/01/22 07:51:45;;;;;;;;;4.50;2.75;;;;;;;;5025629;28;11552;-79
2021/01/22 07:54:11;;;;;;;;;3.00;3.00;;;;;;;;5027140;28;8872;-76
2021/01/22 07:56:38;;;;;;;;;3.75;3.75;;;;;;;;5026848;28;11633;-80
2021/01/22 07:59:05;;;;;;;;;4.25;3.50;;;;;;;;5028539;28;11534;-76
2021/01/22 08:01:31;;;;;;;;;4.50;2.50;;;;;;;;5026968;28;12476;-75
2021/01/22 08:04:00;;;;;;;;;5.00;2.75;;;;;;;;5028138;28;11542;-76
2021/01/22 08:06:26;;;;;;;;;9.00;3.25;;;;;;;;5026011;28;8875;-74
2021/01/22 08:09:04;;;;;;;;;3.00;2.00;;;;;;;;5028397;28;11739;-80
2021/01/22 08:11:29;;;;;;;;;4.00;1.25;;;;;;;;5027815;28;8841;-77
2021/01/22 08:13:55;;;;;;;;;2.25;2.25;;;;;;;;5028113;28;11603;-77
2021/01/22 08:16:22;;;;;;;;;2.00;1.75;;;;;;;;5027080;28;8840;-77
2021/01/22 08:18:48;;;;;;;;;2.25;2.00;;;;;;;;5027944;28;8844;-75
2021/01/22 08:21:15;;;;;;;;;2.00;2.00;;;;;;;;5026647;28;11646;-78
2021/01/22 08:23:44;;;;;;;;;2.00;1.75;;;;;;;;5026487;28;11630;-75
2021/01/22 08:26:10;;;;;;;;;2.00;2.00;;;;;;;;5023389;28;11765;-75
2021/01/22 08:28:36;;;;;;;;;1.00;1.00;;;;;;;;5025253;28;11504;-76
2021/01/22 08:31:02;;;;;;;;;2.00;2.00;;;;;;;;5027953;28;11661;-76
2021/01/22 08:33:28;;;;;;;;;1.00;1.00;;;;;;;;5027450;28;11683;-72
2021/01/22 08:35:55;;;;;;;;;2.00;2.00;;;;;;;;5028813;28;11655;-70
2021/01/22 08:38:23;;;;;;;;;2.00;1.00;;;;;;;;5028966;28;11512;-72
2021/01/22 08:40:49;;;;;;;;;2.25;1.00;;;;;;;;5029355;28;11528;-72
2021/01/22 08:43:15;;;;;;;;;1.25;0.75;;;;;;;;5028338;28;11514;-73
2021/01/22 08:45:41;;;;;;;;;7.75;2.50;;;;;;;;5028723;28;8840;-73
2021/01/22 08:48:07;;;;;;;;;4.75;1.50;;;;;;;;5027700;28;11551;-73
2021/01/22 08:50:33;;;;;;;;;2.00;2.00;;;;;;;;5029246;28;11618;-71
2021/01/22 08:53:06;;;;;;;;;4.50;2.50;;;;;;;;5028599;28;11642;-73
2021/01/22 08:55:33;;;;;;;;;2.25;1.00;;;;;;;;5028418;28;11643;-73
2021/01/22 08:57:59;;;;;;;;;2.00;1.00;;;;;;;;5028725;28;11667;-70
2021/01/22 09:00:25;;;;;;;;;7.25;2.00;;;;;;;;5028728;28;12300;-70
2021/01/22 09:02:51;;;;;;;;;2.00;2.00;;;;;;;;5028790;28;11643;-71
2021/01/22 09:05:17;;;;;;;;;3.25;2.00;;;;;;;;5028161;28;11535;-71
2021/01/22 09:07:43;;;;;;;;;2.75;2.75;;;;;;;;5028897;28;8852;-70
2021/01/22 09:10:24;;;;;;;;;3.00;1.50;;;;;;;;5029088;28;8836;-71
2021/01/22 09:12:51;;;;;;;;;2.25;1.25;;;;;;;;5026563;28;11690;-73
2021/01/22 09:15:17;;;;;;;;;1.75;1.00;;;;;;;;5027982;28;11632;-73
2021/01/22 09:17:44;;;;;;;;;0.50;0.00;;;;;;;;5028343;28;11661;-71
2021/01/22 09:20:15;;;;;;;;;3.00;0.50;;;;;;;;5028786;28;11513;-73
2021/01/22 09:22:42;;;;;;;;;0.75;0.75;;;;;;;;5028991;28;11622;-73
2021/01/22 09:25:10;;;;;;;;;3.25;1.00;;;;;;;;5030944;28;11699;-71
2021/01/22 09:27:37;;;;;;;;;2.00;1.00;;;;;;;;4997204;28;11527;-72
2021/01/22 09:30:05;;;;;;;;;1.00;1.00;;;;;;;;5032640;28;11533;-72
2021/01/22 09:32:31;;;;;;;;;4.75;4.75;;;;;;;;5031176;28;11626;-71
2021/01/22 09:34:57;;;;;;;;;1.00;1.00;;;;;;;;5032176;28;11570;-72
2021/01/22 09:37:23;;;;;;;;;1.50;1.00;;;;;;;;5031763;28;8963;-73
2021/01/22 09:39:49;;;;;;;;;1.00;1.00;;;;;;;;5031464;28;11554;-70
2021/01/22 09:42:15;;;;;;;;;4.50;3.00;;;;;;;;5031587;28;9517;-72
2021/01/22 09:44:41;;;;;;;;;1.00;1.00;;;;;;;;5031917;28;8867;-72
2021/01/22 09:47:08;;;;;;;;;2.50;1.25;;;;;;;;5027979;28;11510;-71
2021/01/22 09:49:34;;;;;;;;;1.00;1.00;;;;;;;;5032296;28;9002;-72
2021/01/22 09:52:00;;;;;;;;;1.00;1.00;;;;;;;;5032064;28;11529;-71
2021/01/22 09:54:25;;;;;;;;;0.75;0.50;;;;;;;;5002093;28;11518;-70
2021/01/22 09:56:51;;;;;;;;;1.50;1.00;;;;;;;;5033352;28;8870;-70
2021/01/22 09:59:17;;;;;;;;;0.00;0.00;;;;;;;;5031750;28;8994;-70
2021/01/22 10:01:43;;;;;;;;;2.00;1.00;;;;;;;;5032101;28;8890;-71
2021/01/22 10:04:10;;;;;;;;;1.00;1.00;;;;;;;;5031905;28;8860;-71
2021/01/22 10:06:39;;;;;;;;;3.00;1.00;;;;;;;;5031598;28;8979;-71
2021/01/22 10:09:09;;;;;;;;;0.25;0.25;;;;;;;;5031892;28;11623;-72
2021/01/22 10:11:35;;;;;;;;;2.00;2.00;;;;;;;;5031773;28;11585;-70
2021/01/22 10:14:01;;;;;;;;;0.00;0.00;;;;;;;;5030852;28;11530;-70
2021/01/22 10:16:27;;;;;;;;;1.00;1.00;;;;;;;;5031454;28;8895;-71
2021/01/22 10:18:54;;;;;;;;;2.00;2.00;;;;;;;;5031450;28;8903;-70
2021/01/22 10:21:21;;;;;;;;;4.50;2.00;;;;;;;;5031109;28;11628;-69
2021/01/22 10:23:47;;;;;;;;;2.25;1.75;;;;;;;;5031711;28;11655;-72
2021/01/22 10:26:14;;;;;;;;;2.25;1.00;;;;;;;;5030672;28;11620;-71
2021/01/22 10:28:40;;;;;;;;;2.00;2.00;;;;;;;;5031270;28;11620;-71
2021/01/22 10:31:06;;;;;;;;;2.00;2.00;;;;;;;;5031195;28;11591;-71
2021/01/22 10:33:32;;;;;;;;;5.25;1.00;;;;;;;;5002641;28;11595;-71
2021/01/22 10:35:58;;;;;;;;;0.50;0.00;;;;;;;;5029748;28;12313;-69
2021/01/22 10:38:26;;;;;;;;;1.25;0.25;;;;;;;;5031205;28;8970;-71
2021/01/22 10:40:52;;;;;;;;;0.00;0.00;;;;;;;;5031544;28;8840;-74
2021/01/22 10:43:21;;;;;;;;;2.00;1.00;;;;;;;;5027825;28;11541;-77
2021/01/22 10:45:47;;;;;;;;;1.00;1.00;;;;;;;;5031195;28;8890;-73
2021/01/22 10:48:13;;;;;;;;;1.50;1.50;;;;;;;;4996926;28;12215;-72
2021/01/22 10:50:39;;;;;;;;;2.50;1.00;;;;;;;;5031332;28;8845;-72
2021/01/22 10:53:05;;;;;;;;;1.25;0.00;;;;;;;;5031708;28;11488;-70
2021/01/22 10:55:32;;;;;;;;;2.00;1.00;;;;;;;;5030459;28;8900;-70
2021/01/22 10:57:58;;;;;;;;;2.00;1.00;;;;;;;;5030915;28;8876;-71
2021/01/22 11:00:24;;;;;;;;;0.00;0.00;;;;;;;;5031166;28;11587;-72
2021/01/22 11:02:50;;;;;;;;;1.75;0.00;;;;;;;;5031272;28;8856;-69
2021/01/22 11:05:19;;;;;;;;;1.00;0.00;;;;;;;;5030511;28;11508;-69
2021/01/22 11:07:45;;;;;;;;;0.00;0.00;;;;;;;;5030856;28;8853;-69
2021/01/22 11:10:11;;;;;;;;;0.00;0.00;;;;;;;;5022610;28;11577;-70
2021/01/22 11:12:38;;;;;;;;;1.50;1.00;;;;;;;;5029233;28;9084;-69
2021/01/22 11:15:04;;;;;;;;;0.00;0.00;;;;;;;;5028269;28;11593;-69
2021/01/22 11:17:30;;;;;;;;;0.50;0.50;;;;;;;;5028381;28;12237;-68
2021/01/22 11:19:56;;;;;;;;;1.75;1.75;;;;;;;;5029286;28;11615;-69
2021/01/22 11:22:23;;;;;;;;;0.25;0.00;;;;;;;;5028736;28;8849;-69
2021/01/22 11:24:48;;;;;;;;;3.00;1.25;;;;;;;;5028854;28;11492;-68
2021/01/22 11:27:14;;;;;;;;;2.00;1.00;;;;;;;;5028410;28;11572;-69
2021/01/22 11:29:41;;;;;;;;;2.75;1.00;;;;;;;;5029032;28;8857;-70
2021/01/22 11:32:07;;;;;;;;;1.25;1.25;;;;;;;;5029358;28;11633;-69
2021/01/22 11:34:33;;;;;;;;;1.50;1.25;;;;;;;;5029349;28;11616;-69
2021/01/22 11:37:00;;;;;;;;;1.25;1.25;;;;;;;;5029226;28;12259;-68
2021/01/22 11:39:28;;;;;;;;;4.25;0.00;;;;;;;;5027808;28;12333;-68
2021/01/22 11:41:54;;;;;;;;;0.00;0.00;;;;;;;;5029323;28;11533;-69
2021/01/22 11:44:20;;;;;;;;;0.25;0.25;;;;;;;;5027796;28;12478;-70
2021/01/22 11:46:47;;;;;;;;;2.75;1.00;;;;;;;;5028466;28;8888;-69
2021/01/22 11:49:13;;;;;;;;;3.00;0.00;;;;;;;;5028935;28;8948;-69
2021/01/22 11:51:39;;;;;;;;;3.00;1.00;;;;;;;;5026310;28;11658;-70
2021/01/22 11:54:05;;;;;;;;;1.75;0.75;;;;;;;;5029883;28;11515;-70
2021/01/22 11:56:31;;;;;;;;;2.00;1.00;;;;;;;;5029664;28;11483;-70
2021/01/22 11:58:57;;;;;;;;;1.75;1.00;;;;;;;;5029604;28;12258;-69
2021/01/22 12:01:23;;;;;;;;;3.00;2.25;;;;;;;;5027492;28;8960;-70
2021/01/22 12:03:49;;;;;;;;;0.75;0.75;;;;;;;;5027430;28;8861;-70
2021/01/22 12:06:15;;;;;;;;;0.00;0.00;;;;;;;;5028966;28;11676;-70
2021/01/22 12:08:41;;;;;;;;;2.00;1.00;;;;;;;;5000417;28;12176;-69
2021/01/22 12:11:07;;;;;;;;;1.50;1.00;;;;;;;;5029165;28;8945;-71
2021/01/22 12:13:33;;;;;;;;;0.00;0.00;;;;;;;;5029155;28;8884;-70
2021/01/22 12:15:59;;;;;;;;;2.00;0.00;;;;;;;;5029386;28;8980;-69
2021/01/22 12:18:25;;;;;;;;;0.75;0.00;;;;;;;;5029033;28;9613;-69
2021/01/22 12:20:52;;;;;;;;;0.50;0.25;;;;;;;;5029367;28;8858;-72
2021/01/22 12:23:18;;;;;;;;;4.00;0.25;;;;;;;;5029105;28;8854;-70
2021/01/22 12:25:46;;;;;;;;;1.50;0.25;;;;;;;;5029026;28;11526;-75
2021/01/22 12:28:12;;;;;;;;;1.00;1.00;;;;;;;;5029668;28;8850;-78
2021/01/22 12:30:38;;;;;;;;;3.50;1.00;;;;;;;;5025496;28;11610;-72
2021/01/22 12:33:04;;;;;;;;;1.25;1.00;;;;;;;;5029587;28;11611;-72
2021/01/22 12:35:30;;;;;;;;;0.75;0.00;;;;;;;;5029101;28;9639;-76
2021/01/22 12:37:57;;;;;;;;;3.00;0.00;;;;;;;;5029331;28;11497;-78
2021/01/22 12:40:23;;;;;;;;;2.00;1.00;;;;;;;;5029373;28;8949;-73
2021/01/22 12:42:49;;;;;;;;;0.00;0.00;;;;;;;;5029366;28;12375;-73
2021/01/22 12:45:15;;;;;;;;;2.00;1.00;;;;;;;;5028888;28;11614;-73
2021/01/22 12:47:41;;;;;;;;;3.00;0.50;;;;;;;;5026142;28;8876;-74
2021/01/22 12:50:08;;;;;;;;;3.00;0.00;;;;;;;;5026149;28;11527;-74
2021/01/22 12:52:33;;;;;;;;;1.50;1.00;;;;;;;;5027113;28;8834;-74
2021/01/22 12:55:00;;;;;;;;;1.00;1.00;;;;;;;;5026403;28;11635;-73
2021/01/22 12:57:26;;;;;;;;;2.25;0.00;;;;;;;;5026899;28;9295;-73
2021/01/22 12:59:52;;;;;;;;;1.25;1.00;;;;;;;;5030263;28;11599;-74
2021/01/22 13:02:18;;;;;;;;;1.00;1.00;;;;;;;;5030708;28;9519;-73
2021/01/22 13:04:44;;;;;;;;;0.50;0.25;;;;;;;;5031055;28;8877;-73
2021/01/22 13:07:11;;;;;;;;;1.75;0.00;;;;;;;;5031069;28;8965;-73
2021/01/22 13:09:37;;;;;;;;;1.50;0.00;;;;;;;;5027501;28;8826;-72
2021/01/22 13:12:04;;;;;;;;;2.50;0.50;;;;;;;;5031026;28;11579;-73
2021/01/22 13:14:30;;;;;;;;;1.50;0.25;;;;;;;;5027632;28;8844;-71
2021/01/22 13:16:58;;;;;;;;;2.50;1.25;;;;;;;;4999650;28;11481;-70
2021/01/22 13:19:27;;;;;;;;;2.00;0.00;;;;;;;;5030605;28;9030;-71
2021/01/22 13:21:53;;;;;;;;;0.00;0.00;;;;;;;;5030394;28;11624;-70
2021/01/22 13:24:19;;;;;;;;;1.25;0.75;;;;;;;;5029184;28;11546;-71
2021/01/22 13:26:45;;;;;;;;;1.25;0.50;;;;;;;;5030159;28;8979;-72
2021/01/22 13:29:12;;;;;;;;;1.00;1.00;;;;;;;;5029261;28;8859;-71
2021/01/22 13:31:38;;;;;;;;;3.75;0.50;;;;;;;;5027782;28;8882;-72
2021/01/22 13:34:03;;;;;;;;;1.00;1.00;;;;;;;;5029959;28;11541;-70
2021/01/22 13:36:29;;;;;;;;;2.00;2.00;;;;;;;;5029116;28;8859;-71
2021/01/22 13:38:55;;;;;;;;;0.50;0.50;;;;;;;;5027748;28;11522;-72
2021/01/22 13:41:24;;;;;;;;;1.50;1.50;;;;;;;;5030998;28;8839;-71
2021/01/22 13:43:49;;;;;;;;;1.00;1.00;;;;;;;;5030289;28;8914;-72
2021/01/22 13:46:16;;;;;;;;;1.00;0.00;;;;;;;;5030252;28;11649;-74
2021/01/22 13:48:44;;;;;;;;;2.00;0.00;;;;;;;;5030829;28;8852;-72
2021/01/22 13:51:10;;;;;;;;;2.25;1.75;;;;;;;;5030478;28;11596;-71
2021/01/22 13:53:36;;;;;;;;;0.50;0.50;;;;;;;;5030942;28;11518;-70
2021/01/22 13:56:02;;;;;;;;;2.00;1.00;;;;;;;;5029920;28;11530;-72
2021/01/22 13:58:28;;;;;;;;;0.00;0.00;;;;;;;;5030905;28;9098;-73
2021/01/22 14:00:53;;;;;;;;;2.00;0.50;;;;;;;;5026867;28;8859;-72
2021/01/22 14:03:20;;;;;;;;;0.00;0.00;;;;;;;;5022628;28;8888;-73
2021/01/22 14:05:46;;;;;;;;;0.00;0.00;;;;;;;;5029548;28;8858;-73
2021/01/22 14:08:12;;;;;;;;;0.25;0.25;;;;;;;;5027805;28;11508;-72
2021/01/22 14:10:38;;;;;;;;;0.00;0.00;;;;;;;;5029448;28;8963;-72
2021/01/22 14:13:04;;;;;;;;;2.00;0.75;;;;;;;;5031445;28;8867;-73
2021/01/22 14:15:30;;;;;;;;;2.00;0.00;;;;;;;;5030621;28;8852;-72
2021/01/22 14:17:56;;;;;;;;;1.00;0.00;;;;;;;;5029562;28;8840;-72
2021/01/22 14:20:23;;;;;;;;;1.25;0.00;;;;;;;;5030419;28;8872;-72
2021/01/22 14:22:49;;;;;;;;;1.00;0.00;;;;;;;;5029849;28;8852;-72
2021/01/22 14:25:15;;;;;;;;;1.00;0.00;;;;;;;;5030234;28;12281;-73
2021/01/22 14:27:40;;;;;;;;;0.00;0.00;;;;;;;;5029333;28;8859;-72
2021/01/22 14:30:07;;;;;;;;;0.00;0.00;;;;;;;;5029554;28;11533;-73
2021/01/22 14:32:33;;;;;;;;;2.00;1.00;;;;;;;;5029087;28;8829;-70
2021/01/22 14:34:59;;;;;;;;;0.00;0.00;;;;;;;;5029577;28;11512;-71
2021/01/22 14:37:26;;;;;;;;;0.00;0.00;;;;;;;;5030295;28;11515;-71
2021/01/22 14:39:52;;;;;;;;;2.00;0.00;;;;;;;;5029663;28;8859;-71
2021/01/22 14:42:18;;;;;;;;;0.00;0.00;;;;;;;;5030358;28;11659;-72
2021/01/22 14:44:44;;;;;;;;;4.25;1.50;;;;;;;;5029547;28;8879;-71
2021/01/22 14:47:09;;;;;;;;;1.00;0.00;;;;;;;;5026066;28;8871;-71
2021/01/22 14:49:35;;;;;;;;;1.00;0.00;;;;;;;;5030244;28;8844;-71